Terminal Aerodrome Forecast
Issued by NWS

Home | Current Version | Previous Version | Text Only | Print | Product List | Glossary On
Versions: 1 2 3 4 5 6 7 8 9 10 11 12 13 14 15 16 17 18 19 20 21 22 23 24 25 26 27 28 29 30
000
FTUS41 KBOX 030520
TAFHYA
TAF
KHYA 030520Z 0306/0406 02010KT P6SM SCT140
     FM031000 02006KT P6SM OVC007
     FM031400 02009KT P6SM BKN090
     FM031600 03009KT P6SM SCT250
     FM032300 07007KT P6SM FEW250=

USA.gov is the U.S. government's official web portal to all federal, state and local government web resources and services.